To NAV CANADA Home Page Login to a new session Search on AWWS site Feedback and Comments Disclaimer Vers la page française équivalente Tips FAQ What's new on the site To the Forecasts and Observations / NOTAM section To "File a Flight Plan" website Publications and other links Update of the User's profile FIC Telephone Numbers My Weather Data Folder Route Weather Data Regional Weather Data Local Weather Data To the Forecasts and Observations / NOTAM section
Request Generated 07/03/2015 at 11:45:28 UTC . Weather information available at that time is displayed.

METAR/TAF

CALGARY/CALGARY INTL/AB    

METAR CYYC 031100Z 31002KT 15SM FEW130 FEW240 17/13 A2997 RMK AC1CI1
AC TR SLP133 DENSITY ALT 4500FT=
METAR CYYC 031000Z 23003KT 15SM FEW110 FEW240 18/14 A2998 RMK AC1CI2
AC TR SLP135 DENSITY ALT 4700FT=
METAR CYYC 030900Z 17004KT 15SM FEW110 18/14 A2998 RMK AC1 AC TR
SLP137 DENSITY ALT 4700FT=

TAF CYYC 031138Z 0312/0412 VRB03KT P6SM FEW110 FEW250
FM031600 36012KT P6SM FEW060
FM032300 03008KT P6SM SCT090 TEMPO 0323/0404 P6SM VCSH BKN090
PROB30 0323/0404 VRB20G30KT 4SM TSRA BKN060CB
FM040400 33008KT P6SM FEW100 SCT150
FM040800 33008KT P6SM SCT020 TEMPO 0408/0412 BKN020
RMK NXT FCST BY 031500Z=
Your time UTC time
Weather data provided by Environment Canada and NAV CANADA